map of QUT home
QUT - Airport
Location
City:  Utsunomiya, Tochigi, Japan
Name:Utsunomiya Air Field
Old (Alt.):JASDF
ICAO:RJTU
IATA:QUT

Details
Type:Airport (Aerodrome, Airfield)
Use:Military
Latitude:36°30'52"N (36.514544)
Longitude:139°52'15"E (139.870936)
Datum:WGS 1984
Elevation:334 ft (102 m)
Variation:7.83°W (WMM2015v2 magnetic declination)
-0.06° annual change
Runways:1
Longest:5570 × 150 ft (1698 × 45.5 m), paved

Time
Time Zone:UTC+9
Local Time:

Weather
METAR:RJTU 040238Z 29017G30KT 9999 FEW035 16/M05 Q1007 RMK 1SC035 A2975

Related Locations
Nearby:
Farthest:SNPV: 11717 mi / 18857 km
Mostardas [Solidão], RS, BR

Find:

   beyond  
but within

Other Information
Maps:
NOTAMs:
Links:
Sources:

  
  • flag of Japan
  • flag of Tochigi
  

Sectional Chart

Flight Planning
at skyvector.com

Satellite Image

Google Maps Satellite view

 

Copyright © 2004-2019 Karl L. Swartz. All rights reserved.
The Great Circle Mapper name and logo are trademarks of the Great Circle Mapper.
All other trademarks mentioned herein belong to their respective owners.
Please see credits for attibutions and further copyright information.

  Follow gcmap on Facebook Follow gcmap on Twitter GCmap on LinkedIn

hCard Microformat

Geo Microformat